createdAt,value
2023-05-22T00:01:33.246Z,13.40
2023-05-22T00:04:34.906Z,10.27
2023-05-22T00:07:36.945Z,10.10
2023-05-22T00:10:39.124Z,11.27
2023-05-22T00:13:40.945Z,10.27
2023-05-22T00:16:42.655Z,11.83
2023-05-22T00:19:44.324Z,13.07
2023-05-22T00:22:45.998Z,9.13
2023-05-22T00:25:47.729Z,10.47
2023-05-22T00:28:49.368Z,16.20
2023-05-22T00:31:50.982Z,9.97
2023-05-22T00:34:52.697Z,15.80
2023-05-22T00:37:54.461Z,12.97
2023-05-22T00:40:56.230Z,12.07
2023-05-22T00:43:57.922Z,9.43
2023-05-22T00:46:59.591Z,14.53
2023-05-22T00:50:01.553Z,14.00
2023-05-22T00:53:03.248Z,10.67
2023-05-22T00:56:05.175Z,11.60
2023-05-22T00:59:06.910Z,11.70
2023-05-22T01:02:08.894Z,10.47
2023-05-22T01:05:13.166Z,13.83
2023-05-22T01:08:15.213Z,10.77
2023-05-22T01:11:22.279Z,11.70
2023-05-22T01:14:26.853Z,12.57
2023-05-22T01:17:35.009Z,11.93
2023-05-22T01:20:41.011Z,11.60
2023-05-22T01:24:01.790Z,9.83
2023-05-22T01:27:18.683Z,11.47
2023-05-22T01:30:39.298Z,10.57
2023-05-22T01:33:55.204Z,11.37
2023-05-22T01:36:57.544Z,14.77
2023-05-22T01:40:01.151Z,18.43
2023-05-22T01:43:02.928Z,8.40
2023-05-22T01:46:05.860Z,11.50
2023-05-22T01:49:09.130Z,13.07
2023-05-22T01:52:15.283Z,12.50
2023-05-22T01:55:21.226Z,12.17
2023-05-22T01:58:41.743Z,10.20
2023-05-22T02:01:43.903Z,9.97
2023-05-22T02:04:49.050Z,12.93
2023-05-22T02:07:50.917Z,8.67
2023-05-22T02:10:55.161Z,11.67
2023-05-22T02:13:57.503Z,10.77
2023-05-22T02:17:02.198Z,20.67
2023-05-22T02:20:05.094Z,13.37
2023-05-22T02:23:14.536Z,11.57
2023-05-22T02:26:16.193Z,10.87
2023-05-22T02:29:17.867Z,10.87
2023-05-22T02:32:19.541Z,12.70
2023-05-22T02:35:23.146Z,14.27
2023-05-22T02:38:26.802Z,11.07
2023-05-22T02:41:28.562Z,13.43
2023-05-22T02:44:30.425Z,10.37
2023-05-22T02:47:32.175Z,12.97
2023-05-22T02:50:33.871Z,14.30
2023-05-22T02:53:40.146Z,14.53
2023-05-22T02:56:42.638Z,16.67
2023-05-22T02:59:45.759Z,13.57
2023-05-22T03:02:48.472Z,14.47
2023-05-22T03:05:53.802Z,14.73
2023-05-22T03:08:55.829Z,16.60
2023-05-22T03:11:58.659Z,15.53
2023-05-22T03:15:00.958Z,11.73
2023-05-22T03:18:03.161Z,16.73
2023-05-22T03:21:05.037Z,29.03
2023-05-22T03:24:06.906Z,11.63
2023-05-22T03:27:08.945Z,10.03
2023-05-22T03:30:16.705Z,12.37
2023-05-22T03:33:28.055Z,11.67
2023-05-22T03:36:32.443Z,10.90
2023-05-22T03:39:34.243Z,12.00
2023-05-22T03:42:42.724Z,10.00
2023-05-22T03:45:44.530Z,8.87
2023-05-22T03:48:46.953Z,10.40
2023-05-22T03:51:48.625Z,14.90
2023-05-22T03:54:50.947Z,11.17
2023-05-22T03:57:52.638Z,11.97
2023-05-22T04:00:55.042Z,13.27
2023-05-22T04:03:56.862Z,14.80
2023-05-22T04:06:59.355Z,13.50
2023-05-22T04:10:01.425Z,16.40
2023-05-22T04:13:03.095Z,9.67
2023-05-22T04:16:07.064Z,11.43
2023-05-22T04:19:09.728Z,11.90
2023-05-22T04:22:11.925Z,11.37
2023-05-22T04:25:19.395Z,10.20
2023-05-22T04:28:24.607Z,14.97
2023-05-22T04:31:26.612Z,10.47
2023-05-22T04:34:30.369Z,16.00
2023-05-22T04:37:35.978Z,15.57
2023-05-22T04:40:38.470Z,10.03
2023-05-22T04:43:40.651Z,7.37
2023-05-22T04:46:44.683Z,10.90
2023-05-22T04:49:46.490Z,11.43
2023-05-22T04:52:48.974Z,12.13
2023-05-22T04:55:53.168Z,13.00
2023-05-22T04:58:55.937Z,13.10
2023-05-22T05:01:57.731Z,9.30
2023-05-22T05:04:59.618Z,11.53
2023-05-22T05:08:01.994Z,9.97
2023-05-22T05:11:03.866Z,9.13
2023-05-22T05:14:05.864Z,9.70
2023-05-22T05:17:07.615Z,15.63
2023-05-22T05:20:09.518Z,10.13
2023-05-22T05:23:12.516Z,13.73
2023-05-22T05:26:14.543Z,9.47
2023-05-22T05:29:16.291Z,8.80
2023-05-22T05:32:27.003Z,11.23
2023-05-22T05:35:45.247Z,7.33
2023-05-22T05:38:48.178Z,17.20
2023-05-22T05:41:50.100Z,11.00
2023-05-22T05:44:52.525Z,18.00
2023-05-22T05:47:55.155Z,15.37
2023-05-22T05:50:56.993Z,11.43
2023-05-22T05:53:59.126Z,12.70
2023-05-22T05:57:01.457Z,10.10
2023-05-22T06:00:05.725Z,12.40
2023-05-22T06:03:17.900Z,13.83
2023-05-22T06:06:37.042Z,6.85
2023-05-22T06:10:00.670Z,9.50
2023-05-22T06:13:11.451Z,10.38
2023-05-22T06:16:13.717Z,14.77
2023-05-22T06:19:15.729Z,13.52
2023-05-22T06:22:18.028Z,6.47
2023-05-22T06:25:23.830Z,9.95
2023-05-22T06:28:25.787Z,7.80
2023-05-22T06:31:28.221Z,12.97
2023-05-22T06:34:32.782Z,7.57
2023-05-22T06:37:35.886Z,7.80
2023-05-22T06:40:38.315Z,6.67
2023-05-22T06:43:47.830Z,8.93
2023-05-22T06:46:50.277Z,8.40
2023-05-22T06:49:58.811Z,9.93
2023-05-22T06:53:01.518Z,6.47
2023-05-22T06:56:03.366Z,8.63
2023-05-22T06:59:23.033Z,7.45
2023-05-22T07:02:40.235Z,5.18
2023-05-22T07:06:02.404Z,10.50
2023-05-22T07:09:08.728Z,8.65
2023-05-22T07:12:10.579Z,6.63
2023-05-22T07:15:14.482Z,6.38
2023-05-22T07:18:21.920Z,7.13
2023-05-22T07:21:26.505Z,11.53
2023-05-22T07:24:30.392Z,9.43
2023-05-22T07:27:32.076Z,6.37
2023-05-22T07:30:37.623Z,6.40
2023-05-22T07:33:40.402Z,9.83
2023-05-22T07:36:42.493Z,11.60
2023-05-22T07:39:46.597Z,12.80
2023-05-22T07:42:49.257Z,9.20
2023-05-22T07:45:51.411Z,10.83
2023-05-22T07:48:57.930Z,6.90
2023-05-22T07:51:59.654Z,5.50
2023-05-22T07:55:01.993Z,8.10
2023-05-22T07:58:05.294Z,8.63
2023-05-22T08:01:13.035Z,8.70
2023-05-22T08:04:14.858Z,10.57
2023-05-22T08:07:16.787Z,6.80
2023-05-22T08:10:18.926Z,5.20
2023-05-22T08:13:20.616Z,9.48
2023-05-22T08:16:22.622Z,8.73
2023-05-22T08:19:24.721Z,10.85
2023-05-22T08:22:26.569Z,6.95
2023-05-22T08:25:28.322Z,6.22
2023-05-22T08:28:30.144Z,6.70
2023-05-22T08:31:34.284Z,6.50
2023-05-22T08:34:36.174Z,10.95
2023-05-22T08:37:37.961Z,5.78
2023-05-22T08:40:41.928Z,8.90
2023-05-22T08:43:45.007Z,9.05
2023-05-22T08:46:47.379Z,6.40
2023-05-22T08:49:51.730Z,9.25
2023-05-22T08:52:57.280Z,9.50
2023-05-22T08:55:59.703Z,15.32
2023-05-22T08:59:02.013Z,6.85
2023-05-22T09:02:06.651Z,7.18
2023-05-22T09:05:09.431Z,4.65
2023-05-22T09:08:19.677Z,8.10
2023-05-22T09:11:22.794Z,7.43
2023-05-22T09:14:25.538Z,9.63
2023-05-22T09:17:27.425Z,5.97
2023-05-22T09:20:29.277Z,4.80
2023-05-22T09:23:30.974Z,6.57
2023-05-22T09:26:33.733Z,7.43
2023-05-22T09:29:51.890Z,7.15
2023-05-22T09:32:54.840Z,5.70
2023-05-22T09:35:56.561Z,8.20
2023-05-22T09:38:59.972Z,7.90
2023-05-22T09:42:01.902Z,10.38
2023-05-22T09:45:07.267Z,4.88
2023-05-22T09:48:09.677Z,12.32
2023-05-22T09:51:12.067Z,8.53
2023-05-22T09:54:14.280Z,7.80
2023-05-22T09:57:18.700Z,5.57
2023-05-22T10:00:20.562Z,8.20
2023-05-22T10:03:23.631Z,7.83
2023-05-22T10:06:27.013Z,7.07
2023-05-22T10:09:34.196Z,7.00
2023-05-22T10:12:40.497Z,11.93
2023-05-22T10:15:42.606Z,7.00
2023-05-22T10:18:49.147Z,8.00
2023-05-22T10:21:51.281Z,6.57
2023-05-22T10:24:54.467Z,7.20
2023-05-22T10:27:57.049Z,7.43
2023-05-22T10:31:02.838Z,8.80
2023-05-22T10:34:50.787Z,5.83
2023-05-22T10:37:53.902Z,8.20
2023-05-22T10:40:55.892Z,5.97
2023-05-22T10:43:58.327Z,8.13
2023-05-22T10:47:10.307Z,7.77
2023-05-22T10:50:12.302Z,8.67
2023-05-22T10:53:23.622Z,6.77
2023-05-22T10:56:32.494Z,4.63
2023-05-22T10:59:34.735Z,8.37
2023-05-22T11:02:43.857Z,9.87
2023-05-22T11:05:52.890Z,7.23
2023-05-22T11:08:56.380Z,4.70
2023-05-22T11:12:13.505Z,7.30
2023-05-22T11:15:16.011Z,5.27
2023-05-22T11:18:17.780Z,4.97
2023-05-22T11:21:19.630Z,5.43
2023-05-22T11:24:21.415Z,9.80
2023-05-22T11:27:23.217Z,7.10
2023-05-22T11:30:25.652Z,11.70
2023-05-22T11:33:27.420Z,8.17
2023-05-22T11:36:29.725Z,6.87
2023-05-22T11:39:32.690Z,8.50
2023-05-22T11:42:35.015Z,6.87
2023-05-22T11:45:37.633Z,7.57
2023-05-22T11:48:42.306Z,5.17
2023-05-22T11:51:44.649Z,7.00
2023-05-22T11:54:47.316Z,8.57
2023-05-22T11:57:49.138Z,5.20
2023-05-22T12:00:50.962Z,8.20
2023-05-22T12:03:52.703Z,7.67
2023-05-22T12:06:54.995Z,6.90
2023-05-22T12:09:56.825Z,7.67
2023-05-22T12:13:01.117Z,5.10
2023-05-22T12:16:02.989Z,6.40
2023-05-22T12:19:08.535Z,7.57
2023-05-22T12:22:10.615Z,6.43
2023-05-22T12:25:20.133Z,5.90
2023-05-22T12:28:21.994Z,6.93
2023-05-22T12:31:23.900Z,11.20
2023-05-22T12:34:26.700Z,12.13
2023-05-22T12:37:28.680Z,6.17
2023-05-22T12:40:30.444Z,7.53
2023-05-22T12:43:32.201Z,6.93
2023-05-22T12:46:34.379Z,5.50
2023-05-22T12:49:36.161Z,10.40
2023-05-22T12:52:37.941Z,5.47
2023-05-22T12:55:39.940Z,6.47
2023-05-22T12:58:41.735Z,8.13
2023-05-22T13:01:43.836Z,9.43
2023-05-22T13:04:45.765Z,5.67
2023-05-22T13:07:47.557Z,6.97
2023-05-22T13:10:49.184Z,6.60
2023-05-22T13:13:51.093Z,7.13
2023-05-22T13:16:52.947Z,9.27
2023-05-22T13:19:55.143Z,7.63
2023-05-22T13:22:56.813Z,9.10
2023-05-22T13:25:58.635Z,10.93
2023-05-22T13:29:00.560Z,8.80
2023-05-22T13:32:02.273Z,7.70
2023-05-22T13:35:04.187Z,6.63
2023-05-22T13:38:05.986Z,8.93
2023-05-22T13:41:07.709Z,8.83
2023-05-22T13:44:09.449Z,7.10
2023-05-22T13:47:11.388Z,7.20
2023-05-22T13:50:13.241Z,6.73
2023-05-22T13:53:15.009Z,9.90
2023-05-22T13:56:16.830Z,9.63
2023-05-22T13:59:18.630Z,8.87
2023-05-22T14:02:20.923Z,7.47
2023-05-22T14:05:23.611Z,10.90
2023-05-22T14:08:25.529Z,10.17
2023-05-22T14:11:27.442Z,10.80
2023-05-22T14:14:29.151Z,7.90
2023-05-22T14:17:31.107Z,11.67
2023-05-22T14:20:32.826Z,7.17
2023-05-22T14:23:34.571Z,7.63
2023-05-22T14:26:36.293Z,7.83
2023-05-22T14:29:38.205Z,7.90
2023-05-22T14:32:40.125Z,6.90
2023-05-22T14:35:42.096Z,7.57
2023-05-22T14:38:44.060Z,10.27
2023-05-22T14:41:45.901Z,8.37
2023-05-22T14:44:47.664Z,8.60
2023-05-22T14:47:49.360Z,10.40
2023-05-22T14:50:51.151Z,9.03
2023-05-22T14:53:53.023Z,12.87
2023-05-22T14:56:54.927Z,20.93
2023-05-22T14:59:56.636Z,10.13
2023-05-22T15:02:58.515Z,12.37
2023-05-22T15:06:00.410Z,8.30
2023-05-22T15:09:02.133Z,10.47
2023-05-22T15:12:03.902Z,10.23
2023-05-22T15:15:05.867Z,8.77
2023-05-22T15:18:07.850Z,8.47
2023-05-22T15:21:09.550Z,11.60
2023-05-22T15:24:11.918Z,10.13
2023-05-22T15:27:13.661Z,8.40
2023-05-22T15:30:17.343Z,7.67
2023-05-22T15:33:33.482Z,7.80
2023-05-22T15:36:36.881Z,11.87
2023-05-22T15:39:40.240Z,11.87
2023-05-22T15:42:41.945Z,7.60
2023-05-22T15:45:52.740Z,9.10
2023-05-22T15:48:54.455Z,7.33
2023-05-22T15:51:56.332Z,7.67
2023-05-22T15:55:01.205Z,8.73
2023-05-22T15:58:03.586Z,6.70
2023-05-22T16:01:05.698Z,9.20
2023-05-22T16:04:07.488Z,6.40
2023-05-22T16:07:09.755Z,8.33
2023-05-22T16:10:11.833Z,7.23
2023-05-22T16:13:17.675Z,8.67
2023-05-22T16:16:20.067Z,9.33
2023-05-22T16:19:22.077Z,7.27
2023-05-22T16:22:30.366Z,7.50
2023-05-22T16:25:41.573Z,12.13
2023-05-22T16:28:43.716Z,8.70
2023-05-22T16:31:45.720Z,10.63
2023-05-22T16:34:48.697Z,9.93
2023-05-22T16:37:53.646Z,9.80
2023-05-22T16:40:55.410Z,8.93
2023-05-22T16:44:05.023Z,9.77
2023-05-22T16:47:06.846Z,14.20
2023-05-22T16:50:09.225Z,9.90
2023-05-22T16:53:10.980Z,10.60
2023-05-22T16:56:14.082Z,13.37
2023-05-22T16:59:15.872Z,10.67
2023-05-22T17:02:17.790Z,10.97
2023-05-22T17:05:22.423Z,10.10
2023-05-22T17:08:24.313Z,12.97
2023-05-22T17:11:26.458Z,10.40
2023-05-22T17:14:28.207Z,10.13
2023-05-22T17:17:30.076Z,16.40
2023-05-22T17:20:33.078Z,11.80
2023-05-22T17:23:37.145Z,10.47
2023-05-22T17:26:39.267Z,12.30
2023-05-22T17:29:42.304Z,9.57
2023-05-22T17:32:45.362Z,10.30
2023-05-22T17:35:47.511Z,9.97
2023-05-22T17:38:49.374Z,17.07
2023-05-22T17:41:51.418Z,10.40
2023-05-22T17:44:56.715Z,12.83
2023-05-22T17:47:58.612Z,11.87
2023-05-22T17:51:00.599Z,12.30
2023-05-22T17:54:02.464Z,21.03
2023-05-22T17:57:04.357Z,11.77
2023-05-22T18:00:09.633Z,13.63
2023-05-22T18:03:15.071Z,12.10
2023-05-22T18:06:16.884Z,35.80
2023-05-22T18:09:18.892Z,20.40
2023-05-22T18:15:26.453Z,36.43
2023-05-22T18:18:28.487Z,17.80
2023-05-22T18:21:30.195Z,26.97
2023-05-22T18:24:32.775Z,16.30
2023-05-22T18:27:35.267Z,14.60
2023-05-22T18:30:38.064Z,12.67
2023-05-22T18:33:42.183Z,14.20
2023-05-22T18:36:43.904Z,31.63
2023-05-22T18:39:48.774Z,26.57
2023-05-22T18:42:50.738Z,18.23
2023-05-22T18:45:54.977Z,15.17
2023-05-22T18:48:56.701Z,30.83
2023-05-22T18:51:58.376Z,22.37
2023-05-22T18:55:02.709Z,24.20
2023-05-22T18:58:04.394Z,26.50
2023-05-22T19:01:09.068Z,36.13
2023-05-22T19:04:13.355Z,24.37
2023-05-22T19:07:18.233Z,23.10
2023-05-22T19:10:20.055Z,19.37
2023-05-22T19:13:21.690Z,15.33
2023-05-22T19:16:23.545Z,17.83
2023-05-22T19:19:25.369Z,22.73
2023-05-22T19:22:27.877Z,21.60
2023-05-22T19:25:29.694Z,21.63
2023-05-22T19:28:36.600Z,40.83
2023-05-22T19:31:38.439Z,43.50
2023-05-22T19:34:40.466Z,35.37
2023-05-22T19:37:42.189Z,32.17
2023-05-22T19:40:43.958Z,47.60
2023-05-22T19:43:45.905Z,94.77
2023-05-22T19:46:48.064Z,41.87
2023-05-22T19:49:49.950Z,26.07
2023-05-22T19:52:51.604Z,28.90
2023-05-22T19:55:53.364Z,38.30
2023-05-22T19:58:55.015Z,21.40
2023-05-22T20:01:56.689Z,23.97
2023-05-22T20:04:58.329Z,15.77
2023-05-22T20:08:00.115Z,22.77
2023-05-22T20:11:01.866Z,22.27
2023-05-22T20:14:03.801Z,13.90
2023-05-22T20:17:05.804Z,12.77
2023-05-22T20:20:09.665Z,13.83
2023-05-22T20:23:11.339Z,13.53
2023-05-22T20:26:15.283Z,17.50
2023-05-22T20:29:17.523Z,14.67
2023-05-22T20:32:19.201Z,13.97
2023-05-22T20:35:22.279Z,20.10
2023-05-22T20:38:24.043Z,17.93
2023-05-22T20:41:28.137Z,22.43
2023-05-22T20:44:31.853Z,14.67
2023-05-22T20:47:37.745Z,16.50
2023-05-22T20:50:40.068Z,13.47
2023-05-22T20:53:42.195Z,13.03
2023-05-22T20:56:44.036Z,13.60
2023-05-22T20:59:46.061Z,13.57
2023-05-22T21:02:47.825Z,13.53
2023-05-22T21:05:49.563Z,12.07
2023-05-22T21:08:53.852Z,16.80
2023-05-22T21:11:58.309Z,11.93
2023-05-22T21:15:00.055Z,15.43
2023-05-22T21:18:01.742Z,12.70
2023-05-22T21:21:03.550Z,14.83
2023-05-22T21:24:06.141Z,16.70
2023-05-22T21:27:07.852Z,13.53
2023-05-22T21:30:12.228Z,11.87
2023-05-22T21:33:13.987Z,11.87
2023-05-22T21:36:15.803Z,12.70
2023-05-22T21:39:17.521Z,14.33
2023-05-22T21:42:19.731Z,15.70
2023-05-22T21:45:21.712Z,15.13
2023-05-22T21:48:23.501Z,18.27
2023-05-22T21:51:25.289Z,12.23
2023-05-22T21:54:26.957Z,11.07
2023-05-22T21:57:28.847Z,13.97
2023-05-22T22:00:30.579Z,10.97
2023-05-22T22:03:32.386Z,12.40
2023-05-22T22:06:34.116Z,12.40
2023-05-22T22:09:35.715Z,13.27
2023-05-22T22:12:37.430Z,11.00
2023-05-22T22:15:39.160Z,14.53
2023-05-22T22:18:40.980Z,12.87
2023-05-22T22:21:42.619Z,15.83
2023-05-22T22:24:45.415Z,15.63
2023-05-22T22:27:48.914Z,12.53
2023-05-22T22:30:50.667Z,12.33
2023-05-22T22:33:52.327Z,13.37
2023-05-22T22:36:54.114Z,13.40
2023-05-22T22:39:55.759Z,12.77
2023-05-22T22:42:57.429Z,13.10
2023-05-22T22:45:59.203Z,12.30
2023-05-22T22:49:01.878Z,12.70
2023-05-22T22:52:04.172Z,10.90
2023-05-22T22:55:06.754Z,16.90
2023-05-22T22:58:09.586Z,13.40
2023-05-22T23:01:11.328Z,15.40
2023-05-22T23:04:13.594Z,12.70
2023-05-22T23:07:15.390Z,10.57
2023-05-22T23:10:17.145Z,10.67
2023-05-22T23:13:18.938Z,14.10
2023-05-22T23:16:21.962Z,12.93
2023-05-22T23:19:24.184Z,15.10
2023-05-22T23:22:25.977Z,11.93
2023-05-22T23:25:27.618Z,11.40
2023-05-22T23:28:29.229Z,13.73
2023-05-22T23:31:31.273Z,12.40
2023-05-22T23:34:33.158Z,14.27
2023-05-22T23:37:34.933Z,10.53
2023-05-22T23:40:36.661Z,10.70
2023-05-22T23:43:38.367Z,11.87
2023-05-22T23:46:40.074Z,12.50
2023-05-22T23:49:41.699Z,13.00
2023-05-22T23:52:43.399Z,12.23
2023-05-22T23:55:45.127Z,11.20
2023-05-22T23:58:46.797Z,12.07
